Savage Island Airport

VT15 · New York (Bundesstaat), Vereinigte Staaten

METAR-Geschichte VT15 · Savage Island Airport

Unten siehst du die METARs der letzten paar Tage. Wähle ein Jahr, um ältere METARs ab dem Jahr 2007 zu durchsuchen.

15. Juli 2024

Uhrzeit Code Wetter Temp. Sichtweite Wolkendecke Wind METAR/SPECI
06:53
V
22 °C 10 mi 7.500 ft 360° 360° 0 kt METAR KPBG 151053Z AUTO 00000KT 10SM OVC075 22/19 A2983 RMK AO2 SLP100 T02170189
05:53
V
22 °C 10 mi 4.700 ft 180° 180° 3 kt METAR KPBG 150953Z AUTO 18003KT 10SM BKN047 OVC065 22/19 A2984 RMK AO2 RAB03E14 SLP103 P0000 T02220189
04:53
V
21 °C 10 mi 6.000 ft 360° 360° 0 kt METAR KPBG 150853Z AUTO 00000KT 10SM OVC060 21/18 A2982 RMK AO2 SLP097 T02060183 55002
03:53
V
21 °C 10 mi 9.000 ft 360° 360° 0 kt METAR KPBG 150753Z AUTO 00000KT 10SM FEW065 OVC090 21/18 A2981 RMK AO2 SLP094 T02060178
02:53
V
20 °C 10 mi 8.500 ft 360° 360° 0 kt METAR KPBG 150653Z AUTO 00000KT 10SM OVC085 20/18 A2982 RMK AO2 SLP095 T02000183
01:53
V
20 °C 10 mi 9.500 ft 360° 360° 0 kt METAR KPBG 150553Z AUTO 00000KT 10SM FEW075 OVC095 20/18 A2983 RMK AO2 SLP099 60000 T02000178 10250 20183 58013
00:53
V
19 °C 10 mi - 360° 360° 0 kt METAR KPBG 150453Z AUTO 00000KT 10SM CLR 19/18 A2985 RMK AO2 SLP106 T01890178 403110167

14. Juli 2024

Uhrzeit Code Wetter Temp. Sichtweite Wolkendecke Wind METAR/SPECI
23:53
V
20 °C 10 mi 9.500 ft 360° 360° 0 kt METAR KPBG 150353Z AUTO 00000KT 10SM BKN095 20/18 A2986 RMK AO2 SLP110 T02000178
22:53
V
21 °C 10 mi - 360° 360° 0 kt METAR KPBG 150253Z AUTO 00000KT 10SM CLR 21/18 A2987 RMK AO2 SLP113 60000 T02110178 58002
21:53
V
22 °C 10 mi - 360° 360° 0 kt METAR KPBG 150153Z AUTO 00000KT 10SM CLR 22/19 A2988 RMK AO2 RAB21E36 SLP116 P0000 T02170189
20:53
V
23 °C 10 mi - 360° 360° 0 kt METAR KPBG 150053Z AUTO 00000KT 10SM CLR 23/19 A2988 RMK AO2 SLP117 T02330194
19:53
V
25 °C 10 mi - 200° 200° 3 kt METAR KPBG 142353Z AUTO 20003KT 10SM CLR 25/19 A2987 RMK AO2 SLP114 T02500189 10311 20250 58007
18:53
V
27 °C 10 mi - 160° 160° 4 kt METAR KPBG 142253Z AUTO 16004KT 10SM CLR 27/18 A2988 RMK AO2 SLP118 T02720183
17:53
V
28 °C 10 mi - 130° 130° 6 kt METAR KPBG 142153Z AUTO 13006KT 10SM CLR 28/18 A2988 RMK AO2 SLP119 T02830183
16:53
V
28 °C 10 mi - 140° 140° 10 kt METAR KPBG 142053Z AUTO 14010KT 10SM CLR 28/18 A2989 RMK AO2 SLP122 T02830183 57022
15:53
V
28 °C 10 mi - 140° 140° 11 kt METAR KPBG 141953Z AUTO 14011KT 10SM CLR 28/17 A2991 RMK AO2 SLP129 T02830172
14:53
V
28 °C 10 mi - 150° 150° 10 - 16 kt METAR KPBG 141853Z AUTO 15010G16KT 10SM FEW070 28/17 A2994 RMK AO2 SLP138 T02830172
13:53
V
31 °C 10 mi - 250° 250° 4 kt METAR KPBG 141753Z AUTO 25004KT 10SM FEW070 31/15 A2996 RMK AO2 SLP144 T03060150 10306 20228 58015
12:53
V
30 °C 10 mi - 360° 360° 0 kt METAR KPBG 141653Z AUTO 10SM FEW060 30/16 A2998 RMK AO2 SLP151 T03000161
11:53
V
29 °C 10 mi - Var Var 4 kt METAR KPBG 141553Z AUTO VRB04KT 10SM CLR 29/17 A2999 RMK AO2 SLP156 T02940167
10:53
V
26 °C 10 mi - 130° 130° 8 kt METAR KPBG 141453Z AUTO 13008KT 10SM CLR 26/21 A3000 RMK AO2 SLP160 T02560211 58007
09:53
V
24 °C 10 mi - 120° 120° 7 kt METAR KPBG 141353Z AUTO 12007KT 10SM CLR 24/21 A3001 RMK AO2 SLP163 T02440206
08:53
V
23 °C 10 mi - 130° 130° 7 kt METAR KPBG 141253Z AUTO 13007KT 10SM CLR 23/19 A3002 RMK AO2 SLP165 T02330194
07:53
V
22 °C 10 mi - 160° 160° 4 kt METAR KPBG 141153Z AUTO 16004KT 10SM CLR 22/19 A3002 RMK AO2 SLP167 70007 T02220189 10228 20167 55001
06:53
V
19 °C 10 mi - 150° 150° 3 kt METAR KPBG 141053Z AUTO 15003KT 10SM CLR 19/18 A3002 RMK AO2 SLP166 T01940183
05:53
V
17 °C 8 mi - 360° 360° 0 kt METAR KPBG 140953Z AUTO 00000KT 8SM CLR 17/17 A3002 RMK AO2 SLP166 T01720167
04:53
V
17 °C 10 mi - 360° 360° 0 kt METAR KPBG 140853Z AUTO 00000KT 10SM CLR 17/17 A3003 RMK AO2 SLP167 T01720167 55003
03:53
V
17 °C 10 mi - 360° 360° 0 kt METAR KPBG 140753Z AUTO 00000KT 10SM CLR 17/17 A3002 RMK AO2 SLP166 T01720167
02:53
V
17 °C 8 mi - 360° 360° 0 kt METAR KPBG 140653Z AUTO 00000KT 8SM CLR 17/17 A3002 RMK AO2 SLP165 T01720167
01:53
V
18 °C 10 mi - 360° 360° 0 kt METAR KPBG 140553Z AUTO 00000KT 10SM CLR 18/17 A3003 RMK AO2 SLP170 T01830172 10233 20178 58005
00:53
V
18 °C 10 mi - 360° 360° 0 kt METAR KPBG 140453Z AUTO 00000KT 10SM CLR 18/17 A3004 RMK AO2 SLP173 T01830172 402720178

13. Juli 2024

Uhrzeit Code Wetter Temp. Sichtweite Wolkendecke Wind METAR/SPECI
23:53
V
19 °C 10 mi - 360° 360° 0 kt METAR KPBG 140353Z AUTO 00000KT 10SM CLR 19/18 A3005 RMK AO2 SLP174 T01890183
22:53
V
20 °C 5 mi - 360° 360° 0 kt METAR KPBG 140253Z AUTO 00000KT 5SM BR CLR 20/19 A3005 RMK AO2 SLP175 T02000194 50001
21:53
V
21 °C 10 mi - 360° 360° 0 kt METAR KPBG 140153Z AUTO 00000KT 10SM CLR 21/20 A3005 RMK AO2 SLP177 T02060200
20:53
V
22 °C 10 mi - 360° 360° 0 kt METAR KPBG 140053Z AUTO 00000KT 10SM CLR 22/20 A3005 RMK AO2 SLP174 T02170200
19:53
V
24 °C 10 mi - 360° 360° 0 kt METAR KPBG 132353Z AUTO 00000KT 10SM CLR 24/21 A3005 RMK AO2 SLP174 T02390206 10272 20239 56001
18:53
V
26 °C 10 mi - 360° 360° 0 kt METAR KPBG 132253Z AUTO 00000KT 10SM CLR 26/19 A3005 RMK AO2 SLP173 T02610189
17:53
V
27 °C 10 mi - 130° 130° 3 kt METAR KPBG 132153Z AUTO 13003KT 10SM FEW110 27/19 A3004 RMK AO2 SLP172 T02670194
16:53
V
25 °C 10 mi - 140° 140° 4 kt METAR KPBG 132053Z AUTO 14004KT 10SM FEW075 FEW100 25/19 A3005 RMK AO2 SLP174 T02500194 58007
15:53
V
26 °C 10 mi 11.000 ft 110° 110° 5 kt METAR KPBG 131953Z AUTO 11005KT 10SM FEW070 BKN110 26/21 A3006 RMK AO2 SLP177 T02560206
14:53
V
24 °C 10 mi - 130° 130° 11 kt METAR KPBG 131853Z AUTO 13011KT 10SM FEW055 SCT080 SCT090 24/21 A3006 RMK AO2 SLP179 T02440206
13:53
V
25 °C 10 mi 9.000 ft 140° 140° 6 kt METAR KPBG 131753Z AUTO 14006KT 10SM FEW044 SCT060 BKN090 25/20 A3007 RMK AO2 SLP181 60007 T02500200 10267 20222 58012
12:53
V
26 °C 10 mi - 150° 150° 10 kt METAR KPBG 131653Z AUTO 15010KT 10SM CLR 26/21 A3009 RMK AO2 RAE06 SLP188 P0001 T02610206
11:56
M
24 °C 3 mi 8.000 ft Var Var 5 kt SPECI KPBG 131556Z AUTO VRB05KT 3SM -RA FEW036 SCT046 BKN080 24/21 A3011 RMK AO2 P0001 T02390206
10:53
V
26 °C 10 mi - 130° 130° 8 kt METAR KPBG 131453Z AUTO 13008KT 10SM SCT100 26/21 A3010 RMK AO2 SLP193 T02560206 58007
09:53
V
24 °C 10 mi - 140° 140° 4 kt METAR KPBG 131353Z AUTO 14004KT 10SM SCT085 24/21 A3011 RMK AO2 SLP196 T02390211
08:53
V
23 °C 10 mi - 150° 150° 3 kt METAR KPBG 131253Z AUTO 15003KT 10SM CLR 23/21 A3012 RMK AO2 SLP200 T02330206
07:53
V
22 °C 10 mi - 360° 360° 0 kt METAR KPBG 131153Z AUTO 00000KT 10SM CLR 22/19 A3012 RMK AO2 SLP200 T02220194 10222 20189 50004
06:53
V
21 °C 10 mi - 360° 360° 0 kt METAR KPBG 131053Z AUTO 00000KT 10SM CLR 21/19 A3013 RMK AO2 SLP202 T02110194
05:53
V
19 °C 5 mi - 360° 360° 0 kt METAR KPBG 130953Z AUTO 00000KT 5SM BR CLR 19/18 A3012 RMK AO2 SLP199 T01940183
04:53
V
20 °C 10 mi 10.000 ft 220° 220° 3 kt METAR KPBG 130853Z AUTO 22003KT 10SM FEW080 BKN100 20/19 A3011 RMK AO2 SLP197 T02000189 53001
03:53
V
20 °C 9 mi 9.000 ft 240° 240° 4 kt METAR KPBG 130753Z AUTO 24004KT 9SM SCT075 BKN090 20/19 A3011 RMK AO2 SLP194 T02000194
03:16
M
20 °C 3 mi - 360° 360° 0 kt SPECI KPBG 130716Z AUTO 00000KT 3SM BR CLR 20/19 A3011 RMK AO2 T02000194
03:01
I
19 °C 1½ mi - 360° 360° 0 kt SPECI KPBG 130701Z AUTO 00000KT 1 1/2SM BR CLR 19/19 A3010 RMK AO2 T01940194
01:53
V
21 °C 10 mi - 280° 280° 4 kt METAR KPBG 130553Z AUTO 28004KT 10SM FEW090 21/20 A3011 RMK AO2 SLP195 T02060200 10250 20200 58005
Eine Änderung melden